Time;durP1;ratioP1;P1;durP2;ratioP2;P2;SDS_P1;SDS_P2;PMS_P1;PMS_P2;Temp;Humidity;BMP_temperature;BMP_pressure;BME280_temperature;BME280_humidity;BME280_pressure;Samples;Min_cycle;Max_cycle;Signal;HPM_P1;HPM_P2
2024/03/24 00:01:50;;;;;;;5.72;1.63;;;;;;;17.39;43.59;99535.19;5040808;28;20048;-77
2024/03/24 00:04:57;;;;;;;7.47;2.30;;;;;;;17.45;41.60;99533.56;5040895;28;20040;-75
2024/03/24 00:08:02;;;;;;;5.93;1.70;;;;;;;17.31;40.09;99539.91;5053137;28;20381;-75
2024/03/24 00:11:06;;;;;;;6.45;2.05;;;;;;;17.15;38.32;99534.78;5053071;28;20491;-75
2024/03/24 00:14:11;;;;;;;6.35;1.35;;;;;;;17.11;37.18;99537.03;5053095;28;20048;-75
2024/03/24 00:17:15;;;;;;;5.07;1.67;;;;;;;17.01;34.55;99538.44;5052899;28;20491;-76
2024/03/24 00:20:20;;;;;;;3.47;1.58;;;;;;;16.92;33.21;99538.56;5052948;28;20052;-75
2024/03/24 00:23:24;;;;;;;5.78;1.63;;;;;;;16.84;33.04;99541.41;5040664;28;20147;-76
2024/03/24 00:26:29;;;;;;;5.05;1.40;;;;;;;16.60;32.06;99544.50;5053002;28;20416;-76
2024/03/24 00:29:34;;;;;;;3.50;1.40;;;;;;;16.70;32.26;99547.75;5040585;28;20048;-76
2024/03/24 00:32:39;;;;;;;4.47;1.10;;;;;;;16.60;30.36;99543.66;5040514;28;20376;-76
2024/03/24 00:35:43;;;;;;;2.15;0.70;;;;;;;16.67;30.24;99542.69;5052792;28;20064;-76
2024/03/24 00:38:48;;;;;;;2.78;1.08;;;;;;;16.40;29.51;99537.16;5053001;28;20060;-75
2024/03/24 00:41:52;;;;;;;3.45;1.10;;;;;;;16.35;29.11;99543.16;5040241;28;20044;-76
2024/03/24 00:44:56;;;;;;;3.88;1.27;;;;;;;16.49;28.51;99536.03;5040725;28;20063;-75
2024/03/24 00:48:01;;;;;;;2.95;1.33;;;;;;;16.39;27.81;99535.50;5053137;28;20368;-75
2024/03/24 00:51:05;;;;;;;2.28;1.00;;;;;;;16.44;27.60;99541.19;5052521;28;20052;-76
2024/03/24 00:54:10;;;;;;;1.92;0.70;;;;;;;16.45;26.72;99537.41;5043356;28;20048;-76
2024/03/24 00:57:18;;;;;;;4.65;0.88;;;;;;;16.52;26.67;99541.06;5056306;28;20056;-76
2024/03/24 01:00:23;;;;;;;3.22;0.70;;;;;;;16.39;26.76;99539.06;5044024;28;20048;-76
2024/03/24 01:03:27;;;;;;;6.03;0.88;;;;;;;16.49;26.70;99541.44;5056313;28;20056;-75
2024/03/24 01:06:32;;;;;;;2.40;0.60;;;;;;;16.36;26.76;99549.41;5056241;28;20056;-76
2024/03/24 01:09:36;;;;;;;3.25;0.70;;;;;;;16.32;26.42;99548.13;5056188;28;20056;-76
2024/03/24 01:12:43;;;;;;;2.42;1.00;;;;;;;16.35;26.64;99545.00;5056152;28;20388;-76
2024/03/24 01:15:51;;;;;;;2.80;0.68;;;;;;;16.35;26.73;99555.84;5043931;28;20051;-76
2024/03/24 01:18:57;;;;;;;3.03;0.70;;;;;;;16.39;26.62;99549.03;5021433;28;20051;-75
2024/03/24 01:22:03;;;;;;;2.03;0.63;;;;;;;16.33;26.48;99552.50;5055954;28;20052;-76
2024/03/24 01:25:08;;;;;;;1.60;0.55;;;;;;;16.38;26.13;99552.75;5055661;28;20060;-76
2024/03/24 01:28:12;;;;;;;3.50;0.60;;;;;;;16.31;26.29;99554.56;5042984;28;20055;-76
2024/03/24 01:31:16;;;;;;;4.65;1.05;;;;;;;16.26;25.60;99550.56;5055873;28;20071;-76
2024/03/24 01:34:21;;;;;;;2.75;0.80;;;;;;;16.22;25.73;99549.25;5055825;28;20052;-76
2024/03/24 01:37:26;;;;;;;0.98;0.43;;;;;;;16.18;25.89;99549.81;5055318;28;20052;-76
2024/03/24 01:40:30;;;;;;;1.40;0.47;;;;;;;16.11;25.64;99555.16;5043259;28;20048;-76
2024/03/24 01:43:35;;;;;;;1.95;0.50;;;;;;;16.13;25.59;99552.25;5043298;28;20044;-76
2024/03/24 01:46:39;;;;;;;2.45;1.27;;;;;;;16.09;25.24;99551.81;5055483;28;20048;-76
2024/03/24 01:49:44;;;;;;;2.50;0.40;;;;;;;16.15;25.51;99544.78;5055401;28;20376;-75
2024/03/24 01:52:49;;;;;;;1.23;0.50;;;;;;;16.14;25.65;99554.81;5055320;28;20052;-76
2024/03/24 01:55:53;;;;;;;2.65;0.60;;;;;;;16.17;25.48;99554.41;5055669;28;20400;-75
2024/03/24 01:58:58;;;;;;;3.72;0.40;;;;;;;16.13;25.21;99552.25;5043069;28;20052;-76
2024/03/24 02:02:03;;;;;;;1.38;0.40;;;;;;;16.07;25.52;99548.44;5055241;28;20048;-76
2024/03/24 02:05:07;;;;;;;2.83;0.52;;;;;;;15.91;25.20;99554.06;5054051;28;20059;-76
2024/03/24 02:08:12;;;;;;;2.50;0.60;;;;;;;15.93;25.54;99557.44;5054839;28;20052;-76
2024/03/24 02:11:16;;;;;;;1.35;0.38;;;;;;;15.98;25.29;99546.88;5042959;28;20067;-76
2024/03/24 02:14:21;;;;;;;1.77;0.50;;;;;;;15.87;25.27;99541.97;5054949;28;20052;-76
2024/03/24 02:17:26;;;;;;;2.00;0.40;;;;;;;15.63;25.63;99544.94;5054767;28;20119;-76
2024/03/24 02:20:33;;;;;;;1.95;0.38;;;;;;;15.47;25.28;99553.25;5042577;28;20052;-76
2024/03/24 02:23:37;;;;;;;1.40;0.40;;;;;;;15.65;24.95;99547.47;5054826;28;20052;-76
2024/03/24 02:26:42;;;;;;;1.20;0.50;;;;;;;15.44;25.57;99549.00;5031177;28;20072;-76
2024/03/24 02:29:46;;;;;;;1.55;0.30;;;;;;;15.46;25.91;99549.69;5042710;28;20048;-75
2024/03/24 02:32:51;;;;;;;3.30;0.40;;;;;;;15.00;26.00;99534.56;5054605;28;20048;-76
2024/03/24 02:35:55;;;;;;;5.50;0.40;;;;;;;15.30;25.62;99538.19;5054346;28;20495;-76
2024/03/24 02:38:59;;;;;;;3.05;0.45;;;;;;;15.06;25.55;99533.00;5054840;28;20056;-75
2024/03/24 02:42:04;;;;;;;3.00;0.52;;;;;;;14.62;26.10;99527.47;5054554;28;20056;-74
2024/03/24 02:45:11;;;;;;;2.15;0.63;;;;;;;14.74;26.49;99526.84;5054404;28;20060;-75
2024/03/24 02:48:16;;;;;;;1.48;0.52;;;;;;;14.94;25.95;99538.84;5030766;28;20056;-75
2024/03/24 02:51:20;;;;;;;1.23;0.30;;;;;;;15.05;25.92;99542.13;5053774;28;20128;-75
2024/03/24 02:54:25;;;;;;;2.17;0.40;;;;;;;14.83;25.92;99533.88;5054239;28;20495;-74
2024/03/24 02:57:29;;;;;;;2.33;0.40;;;;;;;14.69;26.29;99533.84;5054174;28;20060;-74
2024/03/24 03:00:33;;;;;;;1.08;0.50;;;;;;;14.32;26.11;99531.88;5054236;28;20060;-74
2024/03/24 03:03:43;;;;;;;4.40;0.45;;;;;;;14.17;26.16;99518.28;5054045;28;20052;-74
2024/03/24 03:06:47;;;;;;;1.95;0.50;;;;;;;14.22;26.58;99512.38;5041757;28;20060;-74
2024/03/24 03:09:51;;;;;;;3.08;0.60;;;;;;;14.42;26.48;99527.09;5041656;28;20522;-76
2024/03/24 03:12:57;;;;;;;1.25;0.50;;;;;;;14.48;26.25;99523.69;5053926;28;20055;-74
2024/03/24 03:16:01;;;;;;;1.23;0.30;;;;;;;14.33;26.55;99525.47;5041232;28;20048;-74
2024/03/24 03:19:05;;;;;;;2.25;0.55;;;;;;;14.46;26.63;99533.00;5053938;28;20048;-74
2024/03/24 03:22:09;;;;;;;2.88;0.70;;;;;;;14.68;25.92;99529.44;5053812;28;20052;-76
2024/03/24 03:25:14;;;;;;;3.25;0.57;;;;;;;14.71;26.48;99521.00;5041529;28;20094;-74
2024/03/24 03:28:30;;;;;;;1.80;0.70;;;;;;;14.65;26.83;99533.34;5041677;28;20051;-75
2024/03/24 03:31:34;;;;;;;4.97;1.25;;;;;;;14.78;26.61;99521.94;5053686;28;20052;-76
2024/03/24 03:34:39;;;;;;;4.25;1.10;;;;;;;14.68;26.74;99521.34;5053272;28;20056;-75
2024/03/24 03:37:43;;;;;;;2.30;0.95;;;;;;;14.77;26.04;99526.50;5053580;28;20072;-75
2024/03/24 03:40:47;;;;;;;2.72;1.17;;;;;;;14.79;26.59;99526.31;5053795;28;20388;-75
2024/03/24 03:43:52;;;;;;;2.83;0.80;;;;;;;14.70;26.88;99522.00;5053571;28;20478;-75
2024/03/24 03:46:56;;;;;;;3.40;0.90;;;;;;;14.54;26.58;99525.66;5041220;28;20499;-74
2024/03/24 03:50:02;;;;;;;3.25;0.77;;;;;;;14.63;26.25;99530.00;5053247;28;20064;-74
2024/03/24 03:53:07;;;;;;;2.53;0.60;;;;;;;14.67;26.88;99522.34;5041539;28;20056;-75
2024/03/24 03:56:11;;;;;;;2.22;0.60;;;;;;;14.63;26.89;99534.56;5053459;28;20056;-75
2024/03/24 03:59:16;;;;;;;4.25;0.95;;;;;;;14.63;26.79;99529.16;5041244;28;20491;-75
2024/03/24 04:02:21;;;;;;;1.45;0.50;;;;;;;14.53;27.04;99533.94;5041173;28;20063;-75
2024/03/24 04:05:26;;;;;;;2.17;0.77;;;;;;;14.47;27.30;99529.28;5053180;28;20064;-75
2024/03/24 04:08:30;;;;;;;3.05;1.10;;;;;;;14.38;27.16;99539.28;5041102;28;20054;-75
2024/03/24 04:11:34;;;;;;;2.85;0.52;;;;;;;14.17;27.09;99528.25;5041056;28;20052;-75
2024/03/24 04:14:39;;;;;;;1.95;0.60;;;;;;;14.22;27.11;99523.19;5053027;28;20060;-75
2024/03/24 04:17:43;;;;;;;1.77;0.57;;;;;;;14.43;26.50;99517.16;5053136;28;20052;-75
2024/03/24 04:20:48;;;;;;;2.45;0.60;;;;;;;14.33;26.18;99531.72;5040941;28;20059;-75
2024/03/24 04:23:53;;;;;;;2.35;0.60;;;;;;;14.28;26.78;99520.59;5053287;28;20072;-75
2024/03/24 04:26:58;;;;;;;2.30;0.80;;;;;;;14.22;26.66;99531.28;5053238;28;20388;-75
2024/03/24 04:30:04;;;;;;;1.88;0.52;;;;;;;14.25;27.08;99537.13;5057005;28;20484;-76
2024/03/24 04:33:09;;;;;;;4.50;0.80;;;;;;;14.08;27.56;99535.53;5056977;28;20052;-75
2024/03/24 04:36:13;;;;;;;2.00;0.60;;;;;;;14.08;27.05;99545.50;5056662;28;20048;-75
2024/03/24 04:39:19;;;;;;;2.35;0.82;;;;;;;13.97;27.91;99546.75;5056857;28;20052;-76
2024/03/24 04:42:24;;;;;;;1.75;0.60;;;;;;;13.96;27.92;99542.34;5057073;28;20044;-76
2024/03/24 04:45:28;;;;;;;1.52;0.50;;;;;;;13.82;27.75;99542.25;5056769;28;20060;-75
2024/03/24 04:48:33;;;;;;;2.67;0.90;;;;;;;13.78;28.54;99549.00;5044456;28;20048;-76
2024/03/24 04:51:37;;;;;;;2.03;0.50;;;;;;;13.78;28.68;99549.84;5056000;28;20060;-75
2024/03/24 04:54:42;;;;;;;4.53;0.40;;;;;;;13.62;28.82;99548.06;5044318;28;20059;-75
2024/03/24 04:57:46;;;;;;;1.85;0.57;;;;;;;13.46;29.00;99547.25;5044121;28;20392;-75
2024/03/24 05:00:50;;;;;;;2.17;0.70;;;;;;;13.30;29.33;99547.31;5044128;28;20048;-76
2024/03/24 05:03:55;;;;;;;3.03;0.70;;;;;;;13.24;29.13;99554.22;5044156;28;20052;-76
2024/03/24 05:06:59;;;;;;;1.08;0.38;;;;;;;13.24;29.20;99546.13;5044097;28;20498;-76
2024/03/24 05:10:04;;;;;;;1.02;0.30;;;;;;;13.34;29.33;99551.34;5056171;28;20052;-75
2024/03/24 05:13:08;;;;;;;1.10;0.45;;;;;;;13.36;28.85;99544.75;5056240;28;20059;-76
2024/03/24 05:16:14;;;;;;;1.45;0.40;;;;;;;13.43;28.67;99550.31;5056201;28;20040;-76
2024/03/24 05:19:18;;;;;;;1.45;0.50;;;;;;;13.46;28.81;99549.94;5043765;28;20051;-76
2024/03/24 05:22:22;;;;;;;1.92;0.77;;;;;;;13.46;28.57;99558.03;5055851;28;20048;-75
2024/03/24 05:25:27;;;;;;;1.00;0.60;;;;;;;13.48;28.41;99558.72;5043729;28;20056;-75
2024/03/24 05:28:33;;;;;;;3.13;0.40;;;;;;;13.45;28.83;99557.22;5055900;28;20056;-75
2024/03/24 05:31:42;;;;;;;1.17;0.35;;;;;;;13.55;28.91;99555.16;5055636;28;20063;-75
2024/03/24 05:34:47;;;;;;;1.33;0.40;;;;;;;13.79;28.90;99559.63;5055918;28;20392;-75
2024/03/24 05:37:52;;;;;;;1.67;0.63;;;;;;;13.80;28.79;99561.28;5043380;28;20388;-75
2024/03/24 05:41:04;;;;;;;2.00;0.63;;;;;;;13.87;27.96;99566.84;5055870;28;20661;-75
2024/03/24 05:44:08;;;;;;;1.95;0.30;;;;;;;14.00;28.62;99565.25;5055486;28;20056;-75
2024/03/24 05:47:12;;;;;;;3.78;0.50;;;;;;;14.23;27.85;99565.31;5043502;28;20048;-75
2024/03/24 05:50:17;;;;;;;1.85;0.50;;;;;;;14.36;27.89;99554.81;5055078;28;20051;-74
2024/03/24 05:53:21;;;;;;;2.15;0.30;;;;;;;14.34;27.89;99555.00;5055265;28;20052;-74
2024/03/24 05:56:26;;;;;;;2.30;1.20;;;;;;;14.56;27.99;99560.59;5055228;28;20384;-74
2024/03/24 05:59:30;;;;;;;0.98;0.40;;;;;;;14.44;27.76;99559.34;5055130;28;20052;-74
2024/03/24 06:02:35;;;;;;;2.45;0.60;;;;;;;14.35;28.03;99566.63;5042859;28;20047;-75
2024/03/24 06:05:41;;;;;;;1.60;0.50;;;;;;;13.95;28.55;99570.34;5054824;28;20044;-74
2024/03/24 06:08:47;;;;;;;2.60;1.58;;;;;;;14.30;28.51;99575.28;5054902;28;20056;-74
2024/03/24 06:11:52;;;;;;;1.80;0.70;;;;;;;14.51;28.58;99571.94;5042423;28;20064;-74
2024/03/24 06:14:57;;;;;;;2.47;0.93;;;;;;;14.63;28.18;99577.78;5054936;28;20048;-75
2024/03/24 06:18:07;;;;;;;2.95;0.93;;;;;;;14.87;28.78;99580.28;5054798;28;20471;-74
2024/03/24 06:21:11;;;;;;;3.13;0.90;;;;;;;14.86;28.71;99587.53;5042450;28;20048;-74
2024/03/24 06:24:16;;;;;;;2.20;0.70;;;;;;;15.15;28.08;99592.22;5042502;28;20064;-75
2024/03/24 06:27:21;;;;;;;4.00;0.77;;;;;;;15.13;27.79;99588.03;5042351;28;20044;-74
2024/03/24 06:30:26;;;;;;;2.92;0.75;;;;;;;15.74;27.43;99579.66;5054822;28;20052;-75
2024/03/24 06:33:30;;;;;;;3.63;0.50;;;;;;;16.38;27.42;99579.84;5054555;28;20491;-75
2024/03/24 06:36:37;;;;;;;4.57;0.82;;;;;;;15.89;28.55;99585.91;5042354;28;20056;-76
2024/03/24 06:39:41;;;;;;;2.50;0.63;;;;;;;15.38;28.40;99592.19;5054408;28;20052;-74
2024/03/24 06:42:59;;;;;;;2.33;0.68;;;;;;;15.24;28.66;99601.94;5042264;28;20364;-75
2024/03/24 06:46:03;;;;;;;3.08;0.45;;;;;;;15.31;28.51;99602.03;5054785;28;20067;-75
2024/03/24 06:49:08;;;;;;;1.33;0.45;;;;;;;15.22;28.76;99604.00;5054433;28;20059;-76
2024/03/24 06:52:13;;;;;;;2.17;0.60;;;;;;;15.33;28.95;99600.00;5054123;28;20048;-75
2024/03/24 06:55:20;;;;;;;2.42;0.80;;;;;;;15.28;28.71;99602.41;5054550;28;20056;-75
2024/03/24 06:58:26;;;;;;;5.38;1.00;;;;;;;15.37;28.75;99596.75;5054087;28;20056;-76
2024/03/24 07:01:30;;;;;;;3.45;0.70;;;;;;;15.32;29.07;99599.16;5053947;28;20056;-75
2024/03/24 07:04:38;;;;;;;2.40;0.88;;;;;;;15.98;28.92;99592.06;5053739;28;20052;-76
2024/03/24 07:07:42;;;;;;;3.03;0.85;;;;;;;16.52;28.67;99598.81;5053989;28;20059;-75
2024/03/24 07:10:51;;;;;;;3.20;1.33;;;;;;;17.09;28.18;99604.19;5053895;28;20052;-75
2024/03/24 07:13:56;;;;;;;3.17;1.10;;;;;;;17.92;27.50;99619.72;5053631;28;20052;-75
2024/03/24 07:17:01;;;;;;;3.38;1.00;;;;;;;17.69;27.71;99613.69;5053808;28;20048;-75
2024/03/24 07:20:07;;;;;;;3.30;0.90;;;;;;;17.60;27.41;99620.31;5053773;28;20503;-75
2024/03/24 07:23:14;;;;;;;2.80;0.57;;;;;;;17.31;27.71;99624.84;5053709;28;20052;-75
2024/03/24 07:26:18;;;;;;;5.70;0.70;;;;;;;16.77;28.41;99621.81;5029919;28;20044;-77
2024/03/24 07:29:40;;;;;;;2.53;0.50;;;;;;;17.19;27.93;99620.97;5041277;28;20048;-77
2024/03/24 07:32:44;;;;;;;3.50;1.17;;;;;;;17.44;28.11;99618.69;5053666;28;20051;-77
2024/03/24 07:35:50;;;;;;;2.75;0.77;;;;;;;17.65;26.55;99626.84;5053392;28;20395;-77
2024/03/24 07:38:54;;;;;;;2.63;0.60;;;;;;;18.14;25.40;99632.16;5053540;28;20056;-77
2024/03/24 07:41:58;;;;;;;1.10;0.40;;;;;;;18.65;24.04;99629.91;5053559;28;20052;-77
2024/03/24 07:45:03;;;;;;;1.73;0.50;;;;;;;20.00;23.76;99637.56;5053253;28;20487;-77
2024/03/24 07:48:12;;;;;;;2.85;1.02;;;;;;;23.38;21.45;99628.84;5053396;28;20052;-75
2024/03/24 07:51:16;;;;;;;4.07;0.60;;;;;;;25.94;19.82;99635.31;5052999;28;20060;-75
2024/03/24 07:54:21;;;;;;;1.75;0.60;;;;;;;27.59;17.91;99641.25;5041100;28;20071;-75
2024/03/24 07:57:26;;;;;;;2.20;0.60;;;;;;;29.09;15.93;99642.44;5029969;28;20120;-75
2024/03/24 08:00:31;;;;;;;2.15;0.70;;;;;;;31.18;15.57;99654.72;5053405;28;20052;-77
2024/03/24 08:03:35;;;;;;;3.17;0.70;;;;;;;32.86;14.72;99652.94;5056017;28;20396;-76
2024/03/24 08:06:43;;;;;;;1.55;0.57;;;;;;;33.41;14.29;99657.75;5057391;28;20056;-75
2024/03/24 08:09:47;;;;;;;1.25;0.55;;;;;;;34.77;14.17;99657.34;5033577;28;20503;-75
2024/03/24 08:12:52;;;;;;;2.40;0.75;;;;;;;35.31;14.13;99665.66;5044645;28;20056;-75
2024/03/24 08:15:56;;;;;;;1.85;0.60;;;;;;;35.38;13.92;99657.72;5057060;28;20418;-76
2024/03/24 08:19:01;;;;;;;1.25;0.40;;;;;;;35.83;13.85;99658.56;5044803;28;20052;-75
2024/03/24 08:22:06;;;;;;;1.77;0.40;;;;;;;36.38;13.07;99657.16;5056984;28;20377;-77
2024/03/24 08:25:10;;;;;;;1.08;0.40;;;;;;;37.54;11.25;99652.91;5056908;28;20083;-78
2024/03/24 08:28:15;;;;;;;1.27;0.40;;;;;;;38.00;10.74;99652.25;5056965;28;20380;-77
2024/03/24 08:31:19;;;;;;;1.30;0.40;;;;;;;37.18;11.37;99656.00;5056852;28;20044;-76
2024/03/24 08:34:24;;;;;;;2.00;0.70;;;;;;;38.15;11.15;99651.69;5056900;28;20067;-77
2024/03/24 08:37:28;;;;;;;1.38;0.35;;;;;;;38.93;10.62;99653.94;5056827;28;20056;-76
2024/03/24 08:40:33;;;;;;;1.10;0.40;;;;;;;38.90;10.93;99656.59;5056447;28;20056;-76
2024/03/24 08:43:38;;;;;;;1.05;0.38;;;;;;;39.29;10.32;99658.19;5056551;28;20614;-77
2024/03/24 08:46:43;;;;;;;1.63;0.43;;;;;;;39.04;11.32;99657.16;5044408;28;20047;-77
2024/03/24 08:49:47;;;;;;;1.58;0.38;;;;;;;36.76;12.39;99646.31;5044021;28;20104;-76
2024/03/24 08:52:51;;;;;;;1.33;0.40;;;;;;;36.66;13.02;99654.19;5056272;28;20048;-76
2024/03/24 08:55:56;;;;;;;0.88;0.30;;;;;;;35.34;12.70;99651.09;5056436;28;20120;-78
2024/03/24 08:59:01;;;;;;;2.17;0.50;;;;;;;33.96;13.19;99647.69;5056068;28;20491;-78
2024/03/24 09:02:05;;;;;;;1.17;0.30;;;;;;;35.55;12.50;99648.69;5056349;28;20048;-78
2024/03/24 09:05:10;;;;;;;1.65;0.40;;;;;;;35.95;11.53;99639.25;5056439;28;20388;-77
2024/03/24 09:08:15;;;;;;;1.38;0.40;;;;;;;36.74;11.31;99643.00;5056235;28;20048;-78
2024/03/24 09:11:19;;;;;;;1.73;0.50;;;;;;;35.49;11.82;99638.72;5056187;28;20056;-77
2024/03/24 09:14:24;;;;;;;1.40;0.50;;;;;;;35.67;12.01;99648.94;5055633;28;20396;-77
2024/03/24 09:17:28;;;;;;;0.80;0.40;;;;;;;36.16;11.54;99637.63;5056058;28;20495;-77
2024/03/24 09:20:35;;;;;;;2.25;0.50;;;;;;;33.12;12.72;99635.66;5056008;28;20051;-77
2024/03/24 09:23:39;;;;;;;1.27;0.40;;;;;;;32.35;13.86;99624.88;5043659;28;20056;-77
2024/03/24 09:26:43;;;;;;;2.00;0.63;;;;;;;29.42;16.13;99619.88;5043649;28;20071;-77
2024/03/24 09:29:48;;;;;;;2.03;1.00;;;;;;;27.70;17.40;99620.97;5055886;28;20487;-77
2024/03/24 09:32:53;;;;;;;3.95;1.45;;;;;;;26.92;17.90;99621.53;5055680;28;20056;-76
2024/03/24 09:35:59;;;;;;;2.17;0.40;;;;;;;25.99;18.56;99627.13;5055427;28;20048;-76
2024/03/24 09:39:06;;;;;;;1.40;0.30;;;;;;;25.02;19.09;99616.41;5043312;28;20491;-77
2024/03/24 09:42:14;;;;;;;1.30;0.43;;;;;;;24.84;19.29;99613.00;5043170;28;20048;-76
2024/03/24 09:45:28;;;;;;;1.42;0.60;;;;;;;24.51;19.24;99608.19;5055439;28;20048;-76
2024/03/24 09:48:33;;;;;;;7.25;0.75;;;;;;;24.13;19.90;99596.94;5031401;28;20368;-76
2024/03/24 09:51:42;;;;;;;1.80;0.60;;;;;;;23.47;20.06;99605.50;5066755;28;20044;-77
2024/03/24 09:54:47;;;;;;;1.50;0.40;;;;;;;23.43;20.03;99604.31;5074495;28;20044;-77
2024/03/24 09:57:54;;;;;;;4.63;0.70;;;;;;;23.12;20.31;99602.66;5075259;28;20044;-76
2024/03/24 10:00:59;;;;;;;1.33;0.40;;;;;;;23.07;20.80;99595.13;5075224;28;20059;-78
2024/03/24 10:04:05;;;;;;;1.73;0.47;;;;;;;22.85;21.02;99593.16;5073820;28;20094;-77
2024/03/24 10:07:10;;;;;;;1.58;0.50;;;;;;;22.90;20.97;99587.81;5075134;28;20048;-77
2024/03/24 10:10:15;;;;;;;1.52;0.60;;;;;;;23.04;21.27;99583.81;5074834;28;20056;-77
2024/03/24 10:13:23;;;;;;;2.83;0.40;;;;;;;23.26;20.53;99584.94;5062426;28;20051;-76
2024/03/24 10:16:28;;;;;;;1.25;0.40;;;;;;;22.94;20.67;99586.28;5074963;28;20067;-77
2024/03/24 10:19:32;;;;;;;2.13;0.43;;;;;;;22.57;21.40;99578.13;5074021;28;20056;-76
2024/03/24 10:22:37;;;;;;;1.38;0.50;;;;;;;22.65;21.81;99575.13;5074700;28;20071;-77
2024/03/24 10:25:42;;;;;;;2.17;0.68;;;;;;;22.90;21.60;99564.03;5072756;28;20052;-75
2024/03/24 10:28:48;;;;;;;2.47;0.85;;;;;;;23.04;21.59;99562.75;5074711;28;20056;-75
2024/03/24 10:31:52;;;;;;;2.10;0.88;;;;;;;23.17;21.34;99559.81;5074778;28;20478;-77
2024/03/24 10:35:10;;;;;;;1.77;0.60;;;;;;;22.78;21.96;99554.94;5074754;28;20051;-76
2024/03/24 10:38:16;;;;;;;1.60;0.60;;;;;;;22.46;22.16;99551.56;5074636;28;20483;-76
2024/03/24 10:41:24;;;;;;;2.90;0.88;;;;;;;22.32;22.59;99541.84;5074667;28;20048;-76
2024/03/24 10:44:31;;;;;;;1.45;0.40;;;;;;;22.35;22.44;99541.41;5074021;28;20056;-77
2024/03/24 10:47:36;;;;;;;2.22;0.70;;;;;;;22.05;22.16;99536.97;5073776;28;20059;-75
2024/03/24 10:50:45;;;;;;;1.40;0.47;;;;;;;21.42;22.00;99537.16;5064451;28;20064;-76
2024/03/24 10:53:51;;;;;;;2.42;0.70;;;;;;;21.57;21.96;99545.00;5030616;28;20052;-76
2024/03/24 10:56:56;;;;;;;1.35;0.40;;;;;;;21.50;22.82;99539.63;5041819;28;20051;-75
2024/03/24 11:00:01;;;;;;;1.95;0.43;;;;;;;21.27;23.72;99534.78;5030356;28;20060;-77
2024/03/24 11:03:08;;;;;;;2.28;0.52;;;;;;;21.05;23.62;99528.06;5042389;28;20056;-77
2024/03/24 11:06:12;;;;;;;2.92;0.50;;;;;;;21.38;22.89;99527.75;5054115;28;20055;-77
2024/03/24 11:09:17;;;;;;;1.25;0.40;;;;;;;21.29;22.56;99527.22;5053923;28;20072;-76
2024/03/24 11:12:22;;;;;;;1.25;0.40;;;;;;;21.10;23.68;99520.03;5053935;28;20056;-77
2024/03/24 11:15:28;;;;;;;1.38;0.40;;;;;;;21.07;24.08;99519.63;5053941;28;20487;-77
2024/03/24 11:18:32;;;;;;;1.02;0.40;;;;;;;20.94;23.70;99509.63;5053682;28;20063;-77
2024/03/24 11:21:40;;;;;;;1.90;0.57;;;;;;;21.09;22.82;99510.16;5053724;28;20082;-77
2024/03/24 11:24:45;;;;;;;1.40;0.50;;;;;;;20.95;23.30;99511.31;5053494;28;20071;-76
2024/03/24 11:27:51;;;;;;;3.50;1.63;;;;;;;20.97;25.00;99511.91;5053582;28;20051;-77
2024/03/24 11:30:55;;;;;;;1.17;0.50;;;;;;;21.20;23.50;99506.72;5053761;28;20052;-77
2024/03/24 11:34:04;;;;;;;3.50;0.68;;;;;;;20.97;23.17;99501.00;5053380;28;20040;-77
2024/03/24 11:37:09;;;;;;;2.63;0.50;;;;;;;20.84;23.04;99487.44;5053396;28;20048;-77
2024/03/24 11:40:14;;;;;;;1.15;0.40;;;;;;;20.81;24.34;99493.38;5053487;28;20099;-77
2024/03/24 11:43:19;;;;;;;1.58;0.40;;;;;;;20.71;22.25;99487.56;5040919;28;20131;-77
2024/03/24 11:46:26;;;;;;;1.23;0.40;;;;;;;20.65;22.56;99491.16;5053437;28;20059;-77
2024/03/24 11:49:37;;;;;;;1.80;0.50;;;;;;;20.42;23.98;99478.09;5053230;28;20051;-76
2024/03/24 11:52:43;;;;;;;1.35;0.40;;;;;;;20.42;22.78;99480.81;5053299;28;20052;-76
2024/03/24 11:55:48;;;;;;;3.50;0.70;;;;;;;20.47;23.48;99482.88;5053602;28;20111;-76
2024/03/24 11:58:54;;;;;;;1.63;0.50;;;;;;;19.98;24.19;99473.47;5040895;28;20483;-75
2024/03/24 12:01:59;;;;;;;2.70;0.45;;;;;;;20.18;23.20;99469.81;5053220;28;20044;-75
2024/03/24 12:05:04;;;;;;;1.30;0.45;;;;;;;20.04;23.53;99461.72;5040968;28;20048;-77
2024/03/24 12:08:09;;;;;;;3.60;0.50;;;;;;;19.80;23.69;99458.91;5053210;28;20044;-77
2024/03/24 12:11:16;;;;;;;1.83;0.60;;;;;;;19.84;23.57;99457.41;5052878;28;20056;-76
2024/03/24 12:14:22;;;;;;;2.17;0.90;;;;;;;19.85;24.33;99454.47;5053212;28;20116;-76
2024/03/24 12:17:26;;;;;;;1.05;0.43;;;;;;;19.75;24.65;99454.09;5053505;28;20052;-77
2024/03/24 12:20:34;;;;;;;4.05;0.80;;;;;;;19.70;24.59;99444.91;5052632;28;20060;-76
2024/03/24 12:23:38;;;;;;;1.75;0.50;;;;;;;19.85;25.05;99438.13;5052935;28;20491;-76
2024/03/24 12:26:44;;;;;;;2.15;0.80;;;;;;;19.85;25.28;99431.88;5051983;28;20048;-76
2024/03/24 12:30:07;;;;;;;3.17;1.10;;;;;;;19.81;25.54;99434.16;5053032;28;20052;-75
2024/03/24 12:33:11;;;;;;;2.60;0.80;;;;;;;19.78;26.73;99426.44;5052868;28;20409;-76
2024/03/24 12:36:19;;;;;;;2.22;0.65;;;;;;;20.13;26.66;99421.44;5041008;28;20388;-75
2024/03/24 12:39:23;;;;;;;1.85;0.80;;;;;;;20.00;25.61;99419.63;5051686;28;20072;-75
2024/03/24 12:42:28;;;;;;;1.88;0.77;;;;;;;19.98;26.12;99419.00;5053008;28;20052;-75
2024/03/24 12:45:32;;;;;;;2.50;0.98;;;;;;;19.95;26.79;99416.69;5052937;28;20048;-76
2024/03/24 12:48:37;;;;;;;4.72;1.13;;;;;;;20.04;28.84;99418.16;5053538;28;20044;-75
2024/03/24 12:51:43;;;;;;;4.57;1.67;;;;;;;20.15;29.19;99421.22;5055818;28;20048;-75
2024/03/24 12:54:48;;;;;;;2.40;0.98;;;;;;;20.22;28.79;99419.28;5044235;28;20048;-74
2024/03/24 12:57:54;;;;;;;2.42;0.95;;;;;;;20.09;29.83;99417.47;5056472;28;20376;-75
2024/03/24 13:01:02;;;;;;;3.88;1.10;;;;;;;20.03;29.45;99419.19;5056332;28;20052;-75
2024/03/24 13:04:07;;;;;;;2.17;1.00;;;;;;;20.12;28.55;99414.31;5043959;28;20067;-75
2024/03/24 13:07:12;;;;;;;2.45;0.82;;;;;;;20.15;28.59;99413.06;5056230;28;20047;-76
2024/03/24 13:10:18;;;;;;;2.95;1.13;;;;;;;20.09;28.24;99407.44;5032613;28;20052;-76
2024/03/24 13:13:22;;;;;;;3.72;1.17;;;;;;;20.42;26.96;99401.75;5056180;28;20459;-75
2024/03/24 13:16:31;;;;;;;4.40;2.05;;;;;;;20.27;26.10;99403.97;5056129;28;20056;-76
2024/03/24 13:20:10;;;;;;;1.75;0.70;;;;;;;19.95;25.72;99405.81;5055905;28;20067;-76
2024/03/24 13:23:16;;;;;;;2.42;0.93;;;;;;;20.10;25.60;99403.63;4955872;29;20556;-75
2024/03/24 13:26:25;;;;;;;1.48;0.60;;;;;;;20.26;24.73;99396.03;4955794;29;20430;-75
2024/03/24 13:29:29;;;;;;;3.00;0.80;;;;;;;20.19;25.84;99387.88;4955767;29;20151;-77
2024/03/24 13:32:34;;;;;;;3.38;1.00;;;;;;;20.00;26.63;99395.09;4955652;29;20431;-77
2024/03/24 13:35:40;;;;;;;7.38;1.23;;;;;;;19.93;26.45;99385.28;4955802;29;20120;-77
2024/03/24 13:38:59;;;;;;;2.42;0.82;;;;;;;19.97;27.02;99392.00;4944970;29;20751;-76
2024/03/24 13:42:03;;;;;;;5.25;2.00;;;;;;;20.06;26.94;99386.06;4955682;29;20198;-75
2024/03/24 13:45:20;;;;;;;6.07;2.30;;;;;;;20.05;26.49;99378.09;4944404;29;20058;-76
2024/03/24 13:48:26;;;;;;;2.88;1.00;;;;;;;20.07;26.60;99376.81;4955528;29;20074;-77
2024/03/24 13:51:35;;;;;;;2.60;0.80;;;;;;;20.36;25.55;99369.94;4983696;28;20157;-78
2024/03/24 13:54:51;;;;;;;6.38;3.00;;;;;;;20.39;25.42;99364.06;4994253;28;20442;-78
2024/03/24 13:57:56;;;;;;;3.80;1.30;;;;;;;20.29;26.05;99362.88;4973718;28;20057;-77
2024/03/24 14:01:00;;;;;;;3.08;1.40;;;;;;;20.27;26.13;99360.34;5074281;28;20115;-75
2024/03/24 14:04:09;;;;;;;3.22;0.93;;;;;;;20.19;26.64;99357.06;5075278;28;20055;-77
2024/03/24 14:07:17;;;;;;;4.57;0.80;;;;;;;20.23;24.65;99353.69;5075337;28;20047;-76
2024/03/24 14:10:21;;;;;;;6.43;2.83;;;;;;;20.20;24.99;99356.81;5074265;28;20131;-76
2024/03/24 14:13:38;;;;;;;1.70;0.80;;;;;;;20.13;24.23;99351.44;5074324;28;20047;-75
2024/03/24 14:17:15;;;;;;;3.25;1.00;;;;;;;20.10;24.93;99353.75;5075020;28;20051;-78
2024/03/24 14:20:30;;;;;;;3.25;0.88;;;;;;;20.17;25.21;99346.34;5073641;28;20495;-75
2024/03/24 14:23:47;;;;;;;1.50;0.65;;;;;;;20.27;25.65;99332.28;5074749;28;20048;-76
2024/03/24 14:26:53;;;;;;;3.58;1.15;;;;;;;20.30;25.95;99343.56;5074819;28;20060;-75
2024/03/24 14:29:58;;;;;;;2.45;1.00;;;;;;;20.45;25.53;99341.34;5074779;28;20055;-77
2024/03/24 14:33:03;;;;;;;3.47;1.08;;;;;;;20.63;25.73;99332.38;5074638;28;20040;-75
2024/03/24 14:37:06;;;;;;;3.75;1.08;;;;;;;20.54;26.35;99341.91;5074773;28;20047;-76